East Millsboro, Pennsylvania
Current Conditions -  °F | °C
As of 9:15 AM on Saturday 22 Nov 2014 (Local Time) from KAFJ Reporting Station
Overcast Overcast  
Wind Chill: 30°   Ceiling: 3700
Heat Index: 30°   Visibility: 10mi
Dew Point: 16°   Wind: 0mph
Humidity: 55%   Direction: NA
Pressure: 30.33"   Gusts: NA
Location:  39.98°N, 79.99°W
Report Text: KAFJ 221415Z 00000KT 10SM OVC037 M01/M09 A3033 RMK AO1
Loading
Personal Weather Stations






























Interactive Weather Map New forecast layout! Learn more

10-Day Weather Forecast

Advertisements
Track Severe Weather on mobile